sensor_id;sensor_type;location;lat;lon;timestamp;pressure;altitude;pressure_sealevel;temperature;humidity
34374;BME280;20637;55.770;37.592;2022-10-22T00:02:21;100129.66;;;7.17;75.45
34374;BME280;20637;55.770;37.592;2022-10-22T00:04:47;100136.13;;;7.14;75.26
34374;BME280;20637;55.770;37.592;2022-10-22T00:07:13;100137.53;;;7.09;75.89
34374;BME280;20637;55.770;37.592;2022-10-22T00:09:39;100124.38;;;7.06;75.85
34374;BME280;20637;55.770;37.592;2022-10-22T00:12:05;100132.28;;;7.07;75.82
34374;BME280;20637;55.770;37.592;2022-10-22T00:14:30;100129.59;;;7.07;75.73
34374;BME280;20637;55.770;37.592;2022-10-22T00:16:56;100124.13;;;7.09;75.69
34374;BME280;20637;55.770;37.592;2022-10-22T00:19:25;100123.72;;;7.13;75.94
34374;BME280;20637;55.770;37.592;2022-10-22T00:21:51;100120.88;;;7.15;75.86
34374;BME280;20637;55.770;37.592;2022-10-22T00:24:16;100127.09;;;7.15;75.62
34374;BME280;20637;55.770;37.592;2022-10-22T00:26:42;100124.56;;;7.14;75.78
34374;BME280;20637;55.770;37.592;2022-10-22T00:29:07;100117.50;;;7.13;76.28
34374;BME280;20637;55.770;37.592;2022-10-22T00:31:33;100117.22;;;7.16;75.64
34374;BME280;20637;55.770;37.592;2022-10-22T00:33:59;100120.63;;;7.18;75.51
34374;BME280;20637;55.770;37.592;2022-10-22T00:36:25;100116.25;;;7.17;75.59
34374;BME280;20637;55.770;37.592;2022-10-22T00:38:50;100104.94;;;7.13;75.51
34374;BME280;20637;55.770;37.592;2022-10-22T00:41:16;100110.69;;;7.09;75.47
34374;BME280;20637;55.770;37.592;2022-10-22T00:43:54;100104.34;;;7.10;75.36
34374;BME280;20637;55.770;37.592;2022-10-22T00:46:20;100108.72;;;7.11;75.64
34374;BME280;20637;55.770;37.592;2022-10-22T00:48:46;100111.16;;;7.14;75.67
34374;BME280;20637;55.770;37.592;2022-10-22T00:51:11;100108.31;;;7.15;75.53
34374;BME280;20637;55.770;37.592;2022-10-22T00:53:39;100111.00;;;7.15;76.06
34374;BME280;20637;55.770;37.592;2022-10-22T00:56:05;100103.09;;;7.14;75.72
34374;BME280;20637;55.770;37.592;2022-10-22T00:58:32;100112.25;;;7.11;75.38
34374;BME280;20637;55.770;37.592;2022-10-22T01:00:59;100111.66;;;7.08;75.67
34374;BME280;20637;55.770;37.592;2022-10-22T01:03:25;100112.81;;;7.05;76.04
34374;BME280;20637;55.770;37.592;2022-10-22T01:05:53;100108.97;;;7.08;75.60
34374;BME280;20637;55.770;37.592;2022-10-22T01:08:24;100112.41;;;7.10;75.45
34374;BME280;20637;55.770;37.592;2022-10-22T01:10:55;100115.78;;;7.12;75.25
34374;BME280;20637;55.770;37.592;2022-10-22T01:15:58;100108.88;;;7.09;75.42
34374;BME280;20637;55.770;37.592;2022-10-22T01:23:37;100114.50;;;7.06;75.34
34374;BME280;20637;55.770;37.592;2022-10-22T01:28:49;100119.44;;;7.11;75.47
34374;BME280;20637;55.770;37.592;2022-10-22T01:31:18;100115.31;;;7.07;75.57
34374;BME280;20637;55.770;37.592;2022-10-22T01:33:45;100110.25;;;7.04;75.95
34374;BME280;20637;55.770;37.592;2022-10-22T01:36:12;100117.88;;;6.99;75.52
34374;BME280;20637;55.770;37.592;2022-10-22T01:38:39;100117.88;;;6.99;75.82
34374;BME280;20637;55.770;37.592;2022-10-22T01:41:06;100119.94;;;6.95;75.60
34374;BME280;20637;55.770;37.592;2022-10-22T01:43:31;100113.88;;;6.93;75.84
34374;BME280;20637;55.770;37.592;2022-10-22T01:45:58;100121.06;;;6.93;76.00
34374;BME280;20637;55.770;37.592;2022-10-22T01:55:53;100106.47;;;6.86;76.00
34374;BME280;20637;55.770;37.592;2022-10-22T02:00:48;100120.16;;;6.83;76.30
34374;BME280;20637;55.770;37.592;2022-10-22T02:03:18;100121.16;;;6.82;76.64
34374;BME280;20637;55.770;37.592;2022-10-22T02:05:57;100130.06;;;6.82;76.70
34374;BME280;20637;55.770;37.592;2022-10-22T02:08:29;100123.81;;;6.82;76.59
34374;BME280;20637;55.770;37.592;2022-10-22T02:10:55;100129.78;;;6.85;76.68
34374;BME280;20637;55.770;37.592;2022-10-22T02:13:22;100120.75;;;6.86;76.61
34374;BME280;20637;55.770;37.592;2022-10-22T02:15:49;100126.56;;;6.91;76.63
34374;BME280;20637;55.770;37.592;2022-10-22T02:18:16;100126.16;;;6.96;76.71
34374;BME280;20637;55.770;37.592;2022-10-22T02:20:43;100128.44;;;7.00;76.38
34374;BME280;20637;55.770;37.592;2022-10-22T02:23:08;100119.69;;;6.98;76.36
34374;BME280;20637;55.770;37.592;2022-10-22T02:25:35;100131.69;;;6.94;76.62
34374;BME280;20637;55.770;37.592;2022-10-22T02:28:02;100129.84;;;6.95;76.35
34374;BME280;20637;55.770;37.592;2022-10-22T02:30:29;100132.38;;;6.96;76.46
34374;BME280;20637;55.770;37.592;2022-10-22T02:35:22;100126.03;;;6.97;76.46
34374;BME280;20637;55.770;37.592;2022-10-22T02:37:50;100138.59;;;6.97;76.79
34374;BME280;20637;55.770;37.592;2022-10-22T02:40:16;100135.06;;;6.96;76.70
34374;BME280;20637;55.770;37.592;2022-10-22T02:42:42;100135.91;;;6.97;76.57
34374;BME280;20637;55.770;37.592;2022-10-22T02:45:08;100147.38;;;6.99;76.50
34374;BME280;20637;55.770;37.592;2022-10-22T02:47:34;100138.31;;;7.00;76.85
34374;BME280;20637;55.770;37.592;2022-10-22T02:49:59;100140.16;;;6.99;76.91
34374;BME280;20637;55.770;37.592;2022-10-22T02:52:25;100145.41;;;7.01;76.82
34374;BME280;20637;55.770;37.592;2022-10-22T02:54:50;100148.09;;;7.01;76.85
34374;BME280;20637;55.770;37.592;2022-10-22T02:57:16;100144.03;;;7.06;76.98
34374;BME280;20637;55.770;37.592;2022-10-22T02:59:41;100144.75;;;7.08;76.79
34374;BME280;20637;55.770;37.592;2022-10-22T03:02:07;100143.19;;;7.06;76.68
34374;BME280;20637;55.770;37.592;2022-10-22T03:04:32;100150.09;;;7.08;76.83
34374;BME280;20637;55.770;37.592;2022-10-22T03:06:58;100148.28;;;7.09;76.55
34374;BME280;20637;55.770;37.592;2022-10-22T03:09:23;100143.88;;;7.08;76.97
34374;BME280;20637;55.770;37.592;2022-10-22T03:11:49;100152.09;;;7.06;76.35
34374;BME280;20637;55.770;37.592;2022-10-22T03:14:14;100149.25;;;7.08;76.88
34374;BME280;20637;55.770;37.592;2022-10-22T03:16:40;100141.06;;;7.09;76.95
34374;BME280;20637;55.770;37.592;2022-10-22T03:19:05;100143.75;;;7.09;76.67
34374;BME280;20637;55.770;37.592;2022-10-22T03:21:41;100145.72;;;7.07;76.53
34374;BME280;20637;55.770;37.592;2022-10-22T03:24:10;100144.44;;;7.02;76.64
34374;BME280;20637;55.770;37.592;2022-10-22T03:26:36;100151.91;;;6.98;76.85
34374;BME280;20637;55.770;37.592;2022-10-22T03:29:02;100146.38;;;7.00;76.66
34374;BME280;20637;55.770;37.592;2022-10-22T03:31:28;100141.59;;;7.03;77.05
34374;BME280;20637;55.770;37.592;2022-10-22T03:33:54;100146.25;;;7.01;76.40
34374;BME280;20637;55.770;37.592;2022-10-22T03:36:19;100138.91;;;7.03;76.61
34374;BME280;20637;55.770;37.592;2022-10-22T03:38:45;100140.34;;;7.07;76.68
34374;BME280;20637;55.770;37.592;2022-10-22T03:41:10;100133.16;;;7.08;76.48
34374;BME280;20637;55.770;37.592;2022-10-22T03:43:36;100136.56;;;7.10;76.65
34374;BME280;20637;55.770;37.592;2022-10-22T03:46:02;100137.41;;;7.10;76.66
34374;BME280;20637;55.770;37.592;2022-10-22T03:48:27;100139.50;;;7.07;76.74
34374;BME280;20637;55.770;37.592;2022-10-22T03:50:53;100142.31;;;7.05;76.73
34374;BME280;20637;55.770;37.592;2022-10-22T03:53:18;100143.44;;;7.03;76.97
34374;BME280;20637;55.770;37.592;2022-10-22T03:55:44;100148.53;;;7.06;76.76
34374;BME280;20637;55.770;37.592;2022-10-22T03:58:09;100144.44;;;7.02;76.86
34374;BME280;20637;55.770;37.592;2022-10-22T04:00:35;100142.03;;;6.99;76.64
34374;BME280;20637;55.770;37.592;2022-10-22T04:03:00;100141.28;;;6.97;76.83
34374;BME280;20637;55.770;37.592;2022-10-22T04:05:26;100146.53;;;6.98;77.10
34374;BME280;20637;55.770;37.592;2022-10-22T04:07:51;100144.56;;;7.00;76.69
34374;BME280;20637;55.770;37.592;2022-10-22T04:10:17;100141.47;;;7.05;76.99
34374;BME280;20637;55.770;37.592;2022-10-22T04:12:45;100141.59;;;7.03;76.96
34374;BME280;20637;55.770;37.592;2022-10-22T04:15:11;100141.00;;;7.00;76.82
34374;BME280;20637;55.770;37.592;2022-10-22T04:17:36;100149.34;;;6.97;76.73
34374;BME280;20637;55.770;37.592;2022-10-22T04:20:02;100143.13;;;6.96;77.14
34374;BME280;20637;55.770;37.592;2022-10-22T04:22:28;100140.16;;;6.99;77.38
34374;BME280;20637;55.770;37.592;2022-10-22T04:24:54;100145.81;;;6.96;77.13
34374;BME280;20637;55.770;37.592;2022-10-22T04:27:19;100142.84;;;6.99;77.65
34374;BME280;20637;55.770;37.592;2022-10-22T04:29:45;100141.34;;;7.06;77.16
34374;BME280;20637;55.770;37.592;2022-10-22T04:32:10;100139.25;;;7.10;77.34
34374;BME280;20637;55.770;37.592;2022-10-22T04:34:36;100145.31;;;7.12;77.67
34374;BME280;20637;55.770;37.592;2022-10-22T04:37:01;100145.19;;;7.13;77.62
34374;BME280;20637;55.770;37.592;2022-10-22T04:39:27;100148.84;;;7.12;77.12
34374;BME280;20637;55.770;37.592;2022-10-22T04:41:53;100147.03;;;7.13;77.36
34374;BME280;20637;55.770;37.592;2022-10-22T04:44:18;100152.97;;;7.16;77.16
34374;BME280;20637;55.770;37.592;2022-10-22T04:46:43;100150.88;;;7.20;76.92
34374;BME280;20637;55.770;37.592;2022-10-22T04:49:09;100155.13;;;7.23;76.66
34374;BME280;20637;55.770;37.592;2022-10-22T04:51:34;100152.56;;;7.21;76.59
34374;BME280;20637;55.770;37.592;2022-10-22T04:54:00;100156.38;;;7.18;76.72
34374;BME280;20637;55.770;37.592;2022-10-22T04:56:27;100154.09;;;7.14;76.28
34374;BME280;20637;55.770;37.592;2022-10-22T04:58:54;100156.44;;;7.07;76.52
34374;BME280;20637;55.770;37.592;2022-10-22T05:01:27;100159.09;;;6.98;76.32
34374;BME280;20637;55.770;37.592;2022-10-22T05:03:53;100158.50;;;6.94;76.65
34374;BME280;20637;55.770;37.592;2022-10-22T05:06:19;100158.94;;;6.99;76.98
34374;BME280;20637;55.770;37.592;2022-10-22T05:08:46;100166.88;;;7.01;77.04
34374;BME280;20637;55.770;37.592;2022-10-22T05:11:15;100165.75;;;7.03;77.34
34374;BME280;20637;55.770;37.592;2022-10-22T05:13:41;100171.00;;;7.05;77.14
34374;BME280;20637;55.770;37.592;2022-10-22T05:16:07;100166.47;;;7.05;77.24
34374;BME280;20637;55.770;37.592;2022-10-22T05:18:34;100169.63;;;7.10;76.90
34374;BME280;20637;55.770;37.592;2022-10-22T05:21:00;100167.66;;;7.12;76.75
34374;BME280;20637;55.770;37.592;2022-10-22T05:23:25;100167.53;;;7.14;77.07
34374;BME280;20637;55.770;37.592;2022-10-22T05:25:51;100167.09;;;7.18;76.53
34374;BME280;20637;55.770;37.592;2022-10-22T05:28:16;100170.25;;;7.24;76.92
34374;BME280;20637;55.770;37.592;2022-10-22T05:30:45;100165.72;;;7.24;76.91
34374;BME280;20637;55.770;37.592;2022-10-22T05:33:16;100177.16;;;7.26;76.23
34374;BME280;20637;55.770;37.592;2022-10-22T05:35:42;100171.69;;;7.28;76.60
34374;BME280;20637;55.770;37.592;2022-10-22T05:38:07;100171.28;;;7.32;76.80
34374;BME280;20637;55.770;37.592;2022-10-22T05:40:33;100174.81;;;7.33;76.67
34374;BME280;20637;55.770;37.592;2022-10-22T05:42:58;100180.63;;;7.38;76.86
34374;BME280;20637;55.770;37.592;2022-10-22T05:45:24;100182.78;;;7.44;76.73
34374;BME280;20637;55.770;37.592;2022-10-22T05:47:49;100179.81;;;7.47;76.75
34374;BME280;20637;55.770;37.592;2022-10-22T05:50:15;100179.53;;;7.50;76.64
34374;BME280;20637;55.770;37.592;2022-10-22T05:52:40;100188.34;;;7.52;76.18
34374;BME280;20637;55.770;37.592;2022-10-22T05:55:06;100186.22;;;7.55;76.71
34374;BME280;20637;55.770;37.592;2022-10-22T05:57:31;100177.03;;;7.58;76.02
34374;BME280;20637;55.770;37.592;2022-10-22T05:59:57;100178.16;;;7.55;76.38
34374;BME280;20637;55.770;37.592;2022-10-22T06:02:22;100176.19;;;7.57;76.37
34374;BME280;20637;55.770;37.592;2022-10-22T06:04:48;100175.19;;;7.58;76.51
34374;BME280;20637;55.770;37.592;2022-10-22T06:07:13;100180.44;;;7.60;76.26
34374;BME280;20637;55.770;37.592;2022-10-22T06:09:40;100182.97;;;7.61;75.68
34374;BME280;20637;55.770;37.592;2022-10-22T06:12:05;100180.75;;;7.66;76.54
34374;BME280;20637;55.770;37.592;2022-10-22T06:14:35;100184.97;;;7.69;76.01
34374;BME280;20637;55.770;37.592;2022-10-22T06:17:00;100176.91;;;7.69;75.34
34374;BME280;20637;55.770;37.592;2022-10-22T06:19:26;100181.19;;;7.72;75.33
34374;BME280;20637;55.770;37.592;2022-10-22T06:21:51;100180.91;;;7.75;75.93
34374;BME280;20637;55.770;37.592;2022-10-22T06:24:17;100186.28;;;7.75;75.39
34374;BME280;20637;55.770;37.592;2022-10-22T06:26:42;100183.03;;;7.71;75.24
34374;BME280;20637;55.770;37.592;2022-10-22T06:29:08;100185.84;;;7.70;75.71
34374;BME280;20637;55.770;37.592;2022-10-22T06:31:34;100182.06;;;7.72;76.03
34374;BME280;20637;55.770;37.592;2022-10-22T06:34:03;100185.72;;;7.81;75.47
34374;BME280;20637;55.770;37.592;2022-10-22T06:36:28;100179.94;;;7.85;75.91
34374;BME280;20637;55.770;37.592;2022-10-22T06:38:54;100187.59;;;7.90;75.78
34374;BME280;20637;55.770;37.592;2022-10-22T06:41:20;100178.69;;;7.89;74.93
34374;BME280;20637;55.770;37.592;2022-10-22T06:43:46;100192.41;;;7.86;74.96
34374;BME280;20637;55.770;37.592;2022-10-22T06:46:13;100194.38;;;7.84;75.21
34374;BME280;20637;55.770;37.592;2022-10-22T06:48:38;100190.13;;;7.82;74.82
34374;BME280;20637;55.770;37.592;2022-10-22T06:51:05;100197.50;;;7.80;74.83
34374;BME280;20637;55.770;37.592;2022-10-22T06:53:31;100195.22;;;7.85;75.24
34374;BME280;20637;55.770;37.592;2022-10-22T06:55:56;100195.66;;;7.90;74.66
34374;BME280;20637;55.770;37.592;2022-10-22T06:58:22;100200.06;;;7.91;74.12
34374;BME280;20637;55.770;37.592;2022-10-22T07:00:48;100197.38;;;7.91;74.25
34374;BME280;20637;55.770;37.592;2022-10-22T07:03:14;100203.00;;;7.88;74.72
34374;BME280;20637;55.770;37.592;2022-10-22T07:05:40;100204.59;;;7.90;74.09
34374;BME280;20637;55.770;37.592;2022-10-22T07:08:06;100197.22;;;7.92;74.48
34374;BME280;20637;55.770;37.592;2022-10-22T07:10:31;100204.19;;;7.95;74.35
34374;BME280;20637;55.770;37.592;2022-10-22T07:12:57;100211.97;;;7.98;74.74
34374;BME280;20637;55.770;37.592;2022-10-22T07:15:22;100204.88;;;7.97;74.13
34374;BME280;20637;55.770;37.592;2022-10-22T07:17:48;100207.72;;;7.95;74.05
34374;BME280;20637;55.770;37.592;2022-10-22T07:20:13;100214.50;;;7.99;74.37
34374;BME280;20637;55.770;37.592;2022-10-22T07:22:40;100203.63;;;8.01;74.31
34374;BME280;20637;55.770;37.592;2022-10-22T07:25:06;100204.47;;;8.01;74.62
34374;BME280;20637;55.770;37.592;2022-10-22T07:27:31;100216.38;;;8.08;74.42
34374;BME280;20637;55.770;37.592;2022-10-22T07:29:57;100213.56;;;8.10;74.64
34374;BME280;20637;55.770;37.592;2022-10-22T07:32:25;100210.00;;;8.09;73.86
34374;BME280;20637;55.770;37.592;2022-10-22T07:34:50;100215.09;;;8.12;74.41
34374;BME280;20637;55.770;37.592;2022-10-22T07:37:16;100206.06;;;8.13;73.83
34374;BME280;20637;55.770;37.592;2022-10-22T07:39:41;100209.28;;;8.07;73.78
34374;BME280;20637;55.770;37.592;2022-10-22T07:42:07;100210.53;;;8.03;74.25
34374;BME280;20637;55.770;37.592;2022-10-22T07:44:32;100209.56;;;8.04;74.35
34374;BME280;20637;55.770;37.592;2022-10-22T07:46:58;100212.53;;;8.11;74.69
34374;BME280;20637;55.770;37.592;2022-10-22T07:49:23;100209.19;;;8.19;73.84
34374;BME280;20637;55.770;37.592;2022-10-22T07:51:48;100212.56;;;8.21;73.53
34374;BME280;20637;55.770;37.592;2022-10-22T07:54:14;100214.28;;;8.22;73.79
34374;BME280;20637;55.770;37.592;2022-10-22T07:56:39;100211.03;;;8.18;73.35
34374;BME280;20637;55.770;37.592;2022-10-22T07:59:05;100208.34;;;8.18;73.01
34374;BME280;20637;55.770;37.592;2022-10-22T08:01:30;100206.34;;;8.20;73.06
34374;BME280;20637;55.770;37.592;2022-10-22T08:03:56;100210.75;;;8.21;73.10
34374;BME280;20637;55.770;37.592;2022-10-22T08:06:21;100214.41;;;8.20;73.23
34374;BME280;20637;55.770;37.592;2022-10-22T08:08:47;100208.34;;;8.18;72.42
34374;BME280;20637;55.770;37.592;2022-10-22T08:11:12;100203.50;;;8.12;73.07
34374;BME280;20637;55.770;37.592;2022-10-22T08:13:38;100205.59;;;8.08;72.93
34374;BME280;20637;55.770;37.592;2022-10-22T08:16:03;100213.09;;;8.05;73.42
34374;BME280;20637;55.770;37.592;2022-10-22T08:18:29;100214.81;;;8.06;73.28
34374;BME280;20637;55.770;37.592;2022-10-22T08:20:55;100213.38;;;8.11;73.47
34374;BME280;20637;55.770;37.592;2022-10-22T08:23:20;100215.09;;;8.12;73.39
34374;BME280;20637;55.770;37.592;2022-10-22T08:25:46;100206.91;;;8.14;73.11
34374;BME280;20637;55.770;37.592;2022-10-22T08:28:11;100206.63;;;8.17;72.76
34374;BME280;20637;55.770;37.592;2022-10-22T08:30:37;100212.44;;;8.22;72.23
34374;BME280;20637;55.770;37.592;2022-10-22T08:33:05;100204.41;;;8.32;72.60
34374;BME280;20637;55.770;37.592;2022-10-22T08:35:31;100209.78;;;8.32;71.89
34374;BME280;20637;55.770;37.592;2022-10-22T08:37:57;100204.53;;;8.30;71.49
34374;BME280;20637;55.770;37.592;2022-10-22T08:40:29;100215.81;;;8.24;71.62
34374;BME280;20637;55.770;37.592;2022-10-22T08:48:19;100221.50;;;8.21;71.57
34374;BME280;20637;55.770;37.592;2022-10-22T08:50:51;100219.94;;;8.19;71.91
34374;BME280;20637;55.770;37.592;2022-10-22T08:53:20;100204.78;;;8.18;71.93
34374;BME280;20637;55.770;37.592;2022-10-22T08:55:47;100216.81;;;8.23;71.52
34374;BME280;20637;55.770;37.592;2022-10-22T08:58:19;100219.66;;;8.22;72.02
34374;BME280;20637;55.770;37.592;2022-10-22T09:03:23;100215.44;;;8.29;72.36
34374;BME280;20637;55.770;37.592;2022-10-22T09:06:07;100203.25;;;8.34;72.35
34374;BME280;20637;55.770;37.592;2022-10-22T09:08:34;100204.69;;;8.38;71.93
34374;BME280;20637;55.770;37.592;2022-10-22T09:11:01;100208.38;;;8.47;72.06
34374;BME280;20637;55.770;37.592;2022-10-22T09:13:27;100206.13;;;8.52;71.84
34374;BME280;20637;55.770;37.592;2022-10-22T09:15:55;100199.03;;;8.51;71.53
34374;BME280;20637;55.770;37.592;2022-10-22T09:19:08;100205.41;;;8.50;70.55
34374;BME280;20637;55.770;37.592;2022-10-22T09:26:14;100204.28;;;8.52;71.16
34374;BME280;20637;55.770;37.592;2022-10-22T09:28:40;100197.75;;;8.55;71.18
34374;BME280;20637;55.770;37.592;2022-10-22T09:31:12;100198.50;;;8.57;71.86
34374;BME280;20637;55.770;37.592;2022-10-22T09:33:39;100194.53;;;8.61;71.32
34374;BME280;20637;55.770;37.592;2022-10-22T09:36:05;100196.50;;;8.59;71.06
34374;BME280;20637;55.770;37.592;2022-10-22T09:38:53;100195.50;;;8.60;71.10
34374;BME280;20637;55.770;37.592;2022-10-22T09:41:25;100202.16;;;8.66;71.92
34374;BME280;20637;55.770;37.592;2022-10-22T09:43:51;100193.81;;;8.69;71.48
34374;BME280;20637;55.770;37.592;2022-10-22T09:46:18;100195.22;;;8.73;71.19
34374;BME280;20637;55.770;37.592;2022-10-22T09:48:48;100198.75;;;8.73;71.86
34374;BME280;20637;55.770;37.592;2022-10-22T09:51:19;100206.25;;;8.70;71.24
34374;BME280;20637;55.770;37.592;2022-10-22T09:53:47;100197.75;;;8.74;71.59
34374;BME280;20637;55.770;37.592;2022-10-22T09:56:33;100197.63;;;8.76;71.24
34374;BME280;20637;55.770;37.592;2022-10-22T09:58:59;100191.38;;;8.75;71.23
34374;BME280;20637;55.770;37.592;2022-10-22T10:01:32;100197.91;;;8.73;70.68
34374;BME280;20637;55.770;37.592;2022-10-22T10:04:05;100184.72;;;8.70;71.30
34374;BME280;20637;55.770;37.592;2022-10-22T10:06:32;100199.75;;;8.72;71.34
34374;BME280;20637;55.770;37.592;2022-10-22T10:08:57;100185.44;;;8.72;71.23
34374;BME280;20637;55.770;37.592;2022-10-22T10:11:28;100180.47;;;8.67;71.01
34374;BME280;20637;55.770;37.592;2022-10-22T10:14:19;100188.56;;;8.67;71.30
34374;BME280;20637;55.770;37.592;2022-10-22T10:28:00;100183.88;;;8.40;70.87
34374;BME280;20637;55.770;37.592;2022-10-22T10:34:58;100172.13;;;8.32;70.85
34374;BME280;20637;55.770;37.592;2022-10-22T10:37:34;100174.13;;;8.39;71.13
34374;BME280;20637;55.770;37.592;2022-10-22T10:48:41;100177.66;;;8.49;70.14
34374;BME280;20637;55.770;37.592;2022-10-22T10:51:10;100192.09;;;8.48;69.90
34374;BME280;20637;55.770;37.592;2022-10-22T10:53:43;100173.28;;;8.48;70.62
34374;BME280;20637;55.770;37.592;2022-10-22T10:58:56;100167.72;;;8.50;70.25
34374;BME280;20637;55.770;37.592;2022-10-22T11:01:28;100169.03;;;8.55;70.05
34374;BME280;20637;55.770;37.592;2022-10-22T11:06:42;100153.84;;;8.54;69.83
34374;BME280;20637;55.770;37.592;2022-10-22T11:09:20;100162.91;;;8.53;69.95
34374;BME280;20637;55.770;37.592;2022-10-22T11:11:48;100162.22;;;8.61;70.13
34374;BME280;20637;55.770;37.592;2022-10-22T11:14:28;100158.22;;;8.65;70.80
34374;BME280;20637;55.770;37.592;2022-10-22T11:16:55;100152.84;;;8.65;69.87
34374;BME280;20637;55.770;37.592;2022-10-22T11:19:26;100149.16;;;8.66;70.83
34374;BME280;20637;55.770;37.592;2022-10-22T11:24:27;100150.16;;;8.75;70.97
34374;BME280;20637;55.770;37.592;2022-10-22T11:27:00;100146.06;;;8.80;70.66
34374;BME280;20637;55.770;37.592;2022-10-22T11:29:32;100147.31;;;8.86;70.26
34374;BME280;20637;55.770;37.592;2022-10-22T11:32:00;100146.31;;;8.87;70.34
34374;BME280;20637;55.770;37.592;2022-10-22T11:34:27;100145.16;;;8.89;70.54
34374;BME280;20637;55.770;37.592;2022-10-22T11:36:56;100138.94;;;8.89;70.28
34374;BME280;20637;55.770;37.592;2022-10-22T11:41:53;100139.47;;;8.92;70.27
34374;BME280;20637;55.770;37.592;2022-10-22T11:44:22;100135.38;;;8.88;69.95
34374;BME280;20637;55.770;37.592;2022-10-22T11:46:54;100138.06;;;8.88;70.37
34374;BME280;20637;55.770;37.592;2022-10-22T11:49:27;100131.03;;;8.87;69.60
34374;BME280;20637;55.770;37.592;2022-10-22T11:52:26;100123.94;;;8.86;69.57
34374;BME280;20637;55.770;37.592;2022-10-22T11:54:55;100128.59;;;8.84;70.47
34374;BME280;20637;55.770;37.592;2022-10-22T11:57:34;100131.03;;;8.87;69.73
34374;BME280;20637;55.770;37.592;2022-10-22T12:00:00;100129.59;;;8.83;69.97
34374;BME280;20637;55.770;37.592;2022-10-22T12:02:41;100136.66;;;8.84;70.36
34374;BME280;20637;55.770;37.592;2022-10-22T12:07:55;100124.09;;;8.75;70.09
34374;BME280;20637;55.770;37.592;2022-10-22T12:13:26;100116.59;;;8.69;69.53
34374;BME280;20637;55.770;37.592;2022-10-22T12:15:53;100111.19;;;8.69;70.11
34374;BME280;20637;55.770;37.592;2022-10-22T12:18:26;100106.41;;;8.73;70.33
34374;BME280;20637;55.770;37.592;2022-10-22T12:20:52;100110.34;;;8.78;70.24
34374;BME280;20637;55.770;37.592;2022-10-22T12:23:18;100113.59;;;8.82;70.05
34374;BME280;20637;55.770;37.592;2022-10-22T12:25:45;100102.69;;;8.83;69.06
34374;BME280;20637;55.770;37.592;2022-10-22T12:28:11;100108.75;;;8.85;69.01
34374;BME280;20637;55.770;37.592;2022-10-22T12:30:37;100101.25;;;8.89;69.36
34374;BME280;20637;55.770;37.592;2022-10-22T12:33:03;100101.25;;;8.89;68.65
34374;BME280;20637;55.770;37.592;2022-10-22T12:35:30;100104.22;;;8.86;68.59
34374;BME280;20637;55.770;37.592;2022-10-22T12:37:56;100096.88;;;8.78;69.09
34374;BME280;20637;55.770;37.592;2022-10-22T12:40:23;100100.44;;;8.79;68.89
34374;BME280;20637;55.770;37.592;2022-10-22T12:42:50;100094.91;;;8.71;68.26
34374;BME280;20637;55.770;37.592;2022-10-22T12:45:16;100092.41;;;8.59;68.09
34374;BME280;20637;55.770;37.592;2022-10-22T12:47:45;100098.63;;;8.50;68.52
34374;BME280;20637;55.770;37.592;2022-10-22T12:50:16;100090.84;;;8.47;68.95
34374;BME280;20637;55.770;37.592;2022-10-22T12:52:43;100087.31;;;8.47;68.57
34374;BME280;20637;55.770;37.592;2022-10-22T12:55:13;100093.41;;;8.49;68.43
34374;BME280;20637;55.770;37.592;2022-10-22T12:57:39;100083.50;;;8.49;68.50
34374;BME280;20637;55.770;37.592;2022-10-22T13:00:17;100093.41;;;8.49;69.38
34374;BME280;20637;55.770;37.592;2022-10-22T13:02:43;100098.22;;;8.45;68.82
34374;BME280;20637;55.770;37.592;2022-10-22T13:05:14;100095.25;;;8.48;69.24
34374;BME280;20637;55.770;37.592;2022-10-22T13:07:41;100087.00;;;8.50;69.61
34374;BME280;20637;55.770;37.592;2022-10-22T13:10:14;100091.41;;;8.51;69.63
34374;BME280;20637;55.770;37.592;2022-10-22T13:12:43;100094.69;;;8.45;68.62
34374;BME280;20637;55.770;37.592;2022-10-22T13:15:18;100093.41;;;8.39;68.86
34374;BME280;20637;55.770;37.592;2022-10-22T13:17:44;100095.53;;;8.36;68.88
34374;BME280;20637;55.770;37.592;2022-10-22T13:20:21;100081.91;;;8.28;67.97
34374;BME280;20637;55.770;37.592;2022-10-22T13:22:54;100088.88;;;8.21;68.04
34374;BME280;20637;55.770;37.592;2022-10-22T13:25:26;100086.88;;;8.23;68.70
34374;BME280;20637;55.770;37.592;2022-10-22T13:28:00;100084.06;;;8.24;68.02
34374;BME280;20637;55.770;37.592;2022-10-22T13:30:29;100083.50;;;8.30;68.03
34374;BME280;20637;55.770;37.592;2022-10-22T13:32:56;100078.84;;;8.32;67.94
34374;BME280;20637;55.770;37.592;2022-10-22T13:35:23;100083.25;;;8.33;67.17
34374;BME280;20637;55.770;37.592;2022-10-22T13:37:50;100077.41;;;8.28;66.50
34374;BME280;20637;55.770;37.592;2022-10-22T13:40:16;100089.28;;;8.26;66.00
34374;BME280;20637;55.770;37.592;2022-10-22T13:42:42;100082.50;;;8.22;65.05
34374;BME280;20637;55.770;37.592;2022-10-22T13:45:07;100077.84;;;8.14;65.33
34374;BME280;20637;55.770;37.592;2022-10-22T13:47:33;100082.09;;;8.07;65.86
34374;BME280;20637;55.770;37.592;2022-10-22T13:49:59;100076.28;;;8.02;65.97
34374;BME280;20637;55.770;37.592;2022-10-22T13:52:35;100081.50;;;8.03;66.66
34374;BME280;20637;55.770;37.592;2022-10-22T13:55:11;100074.72;;;8.09;66.75
34374;BME280;20637;55.770;37.592;2022-10-22T13:57:37;100074.72;;;8.09;65.86
34374;BME280;20637;55.770;37.592;2022-10-22T14:00:03;100071.03;;;8.10;66.03
34374;BME280;20637;55.770;37.592;2022-10-22T14:02:37;100063.84;;;8.10;66.00
34374;BME280;20637;55.770;37.592;2022-10-22T14:05:03;100070.19;;;8.09;66.27
34374;BME280;20637;55.770;37.592;2022-10-22T14:07:32;100059.16;;;8.12;66.13
34374;BME280;20637;55.770;37.592;2022-10-22T14:09:58;100064.09;;;8.17;66.50